createdAt,value
2022-11-07T00:01:10.667Z,10.85
2022-11-07T00:03:37.637Z,10.83
2022-11-07T00:06:04.373Z,10.86
2022-11-07T00:08:34.043Z,10.87
2022-11-07T00:11:01.939Z,10.87
2022-11-07T00:13:29.595Z,10.83
2022-11-07T00:16:09.918Z,10.87
2022-11-07T00:18:37.079Z,10.88
2022-11-07T00:21:05.892Z,10.88
2022-11-07T00:23:32.833Z,10.87
2022-11-07T00:26:07.760Z,10.88
2022-11-07T00:28:36.008Z,10.89
2022-11-07T00:31:03.404Z,10.90
2022-11-07T00:33:30.204Z,10.90
2022-11-07T00:35:56.745Z,10.92
2022-11-07T00:38:23.319Z,10.90
2022-11-07T00:41:01.186Z,10.89
2022-11-07T00:43:28.464Z,10.92
2022-11-07T00:45:55.285Z,10.91
2022-11-07T00:48:22.277Z,10.89
2022-11-07T00:50:49.105Z,10.91
2022-11-07T00:53:16.091Z,10.93
2022-11-07T00:55:42.911Z,10.94
2022-11-07T00:58:13.782Z,10.94
2022-11-07T01:00:41.244Z,10.94
2022-11-07T01:03:26.132Z,10.93
2022-11-07T01:06:00.201Z,10.92
2022-11-07T01:08:26.888Z,10.89
2022-11-07T01:10:53.764Z,10.91
2022-11-07T01:13:20.470Z,10.93
2022-11-07T01:15:47.057Z,10.91
2022-11-07T01:18:13.616Z,10.97
2022-11-07T01:20:41.140Z,10.94
2022-11-07T01:23:08.865Z,10.98
2022-11-07T01:25:39.539Z,10.99
2022-11-07T01:28:07.271Z,11.00
2022-11-07T01:30:37.451Z,10.99
2022-11-07T01:33:04.057Z,10.97
2022-11-07T01:35:32.879Z,11.00
2022-11-07T01:37:59.456Z,11.00
2022-11-07T01:40:26.016Z,11.02
2022-11-07T01:42:52.724Z,11.00
2022-11-07T01:45:27.945Z,11.03
2022-11-07T01:47:58.205Z,11.04
2022-11-07T01:50:25.096Z,11.02
2022-11-07T01:52:53.512Z,11.03
2022-11-07T01:55:24.948Z,11.04
2022-11-07T01:57:57.608Z,11.05
2022-11-07T02:00:25.279Z,11.05
2022-11-07T02:03:14.125Z,11.03
2022-11-07T02:05:45.116Z,11.04
2022-11-07T02:08:12.534Z,11.05
2022-11-07T02:10:40.731Z,11.04
2022-11-07T02:13:07.451Z,11.05
2022-11-07T02:15:35.498Z,11.06
2022-11-07T02:18:02.757Z,11.04
2022-11-07T02:20:29.649Z,11.06
2022-11-07T02:23:00.878Z,11.04
2022-11-07T02:25:27.378Z,11.04
2022-11-07T02:27:58.232Z,11.06
2022-11-07T02:30:29.268Z,11.05
2022-11-07T02:32:55.927Z,11.06
2022-11-07T02:35:40.982Z,11.04
2022-11-07T02:38:17.016Z,11.06
2022-11-07T02:40:45.427Z,11.08
2022-11-07T02:43:14.845Z,11.05
2022-11-07T02:45:44.743Z,11.07
2022-11-07T02:48:11.256Z,11.07
2022-11-07T02:50:37.949Z,11.09
2022-11-07T02:53:04.485Z,11.08
2022-11-07T02:55:30.995Z,11.10
2022-11-07T02:57:57.547Z,11.09
2022-11-07T03:00:24.158Z,11.08
2022-11-07T03:02:50.790Z,11.11
2022-11-07T03:05:20.185Z,11.12
2022-11-07T03:07:48.659Z,11.09
2022-11-07T03:10:17.007Z,11.13
2022-11-07T03:12:43.603Z,11.11
2022-11-07T03:15:11.761Z,11.15
2022-11-07T03:17:38.446Z,11.15
2022-11-07T03:20:05.664Z,11.16
2022-11-07T03:22:32.176Z,11.15
2022-11-07T03:24:58.710Z,11.17
2022-11-07T03:27:25.512Z,11.17
2022-11-07T03:29:51.952Z,11.18
2022-11-07T03:32:18.476Z,11.17
2022-11-07T03:34:44.962Z,11.19
2022-11-07T03:37:11.521Z,11.19
2022-11-07T03:39:38.086Z,11.18
2022-11-07T03:42:04.761Z,11.21
2022-11-07T03:44:31.278Z,11.21
2022-11-07T03:46:57.793Z,11.23
2022-11-07T03:49:24.447Z,11.22
2022-11-07T03:51:50.928Z,11.22
2022-11-07T03:54:17.466Z,11.25
2022-11-07T03:56:43.974Z,11.26
2022-11-07T03:59:10.504Z,11.26
2022-11-07T04:01:37.283Z,11.28
2022-11-07T04:04:03.904Z,11.26
2022-11-07T04:06:30.430Z,11.26
2022-11-07T04:08:56.966Z,11.29
2022-11-07T04:11:42.048Z,11.29
2022-11-07T04:14:27.174Z,11.29
2022-11-07T04:17:12.064Z,11.29
2022-11-07T04:19:38.593Z,11.28
2022-11-07T04:22:05.141Z,11.30
2022-11-07T04:24:31.687Z,11.31
2022-11-07T04:27:16.848Z,11.34
2022-11-07T04:29:43.389Z,11.34
2022-11-07T04:32:09.883Z,11.35
2022-11-07T04:34:36.593Z,11.35
2022-11-07T04:37:03.081Z,11.32
2022-11-07T04:39:29.612Z,11.34
2022-11-07T04:41:59.049Z,11.34
2022-11-07T04:44:25.572Z,11.34
2022-11-07T04:46:52.110Z,11.37
2022-11-07T04:49:18.753Z,11.33
2022-11-07T04:51:45.285Z,11.36
2022-11-07T04:54:15.392Z,11.37
2022-11-07T04:56:42.012Z,11.38
2022-11-07T04:59:09.040Z,11.37
2022-11-07T05:01:35.654Z,11.34
2022-11-07T05:04:02.268Z,11.38
2022-11-07T05:06:29.421Z,11.39
2022-11-07T05:08:55.925Z,11.39
2022-11-07T05:11:22.450Z,11.36
2022-11-07T05:13:48.992Z,11.38
2022-11-07T05:16:17.304Z,11.39
2022-11-07T05:18:44.031Z,11.37
2022-11-07T05:21:10.895Z,11.40
2022-11-07T05:23:37.418Z,11.37
2022-11-07T05:26:04.135Z,11.38
2022-11-07T05:28:38.873Z,11.40
2022-11-07T05:31:08.178Z,11.40
2022-11-07T05:33:35.421Z,11.38
2022-11-07T05:36:19.687Z,11.35
2022-11-07T05:38:48.889Z,11.36
2022-11-07T05:41:17.215Z,11.35
2022-11-07T05:43:44.212Z,11.37
2022-11-07T05:46:11.385Z,11.34
2022-11-07T05:48:38.525Z,11.35
2022-11-07T05:51:07.210Z,11.34
2022-11-07T05:53:34.199Z,11.34
2022-11-07T05:56:00.871Z,11.35
2022-11-07T05:58:27.623Z,11.33
2022-11-07T06:00:54.209Z,11.34
2022-11-07T06:03:21.219Z,11.31
2022-11-07T06:05:48.139Z,11.34
2022-11-07T06:08:14.944Z,11.31
2022-11-07T06:10:42.746Z,11.34
2022-11-07T06:13:13.686Z,11.30
2022-11-07T06:15:41.839Z,11.31
2022-11-07T06:18:16.022Z,11.30
2022-11-07T06:20:42.796Z,11.31
2022-11-07T06:23:10.098Z,11.29
2022-11-07T06:25:37.034Z,11.31
2022-11-07T06:28:06.602Z,11.31
2022-11-07T06:30:34.082Z,11.32
2022-11-07T06:33:10.330Z,11.24
2022-11-07T06:35:37.144Z,11.28
2022-11-07T06:38:06.061Z,11.28
2022-11-07T06:40:33.320Z,11.30
2022-11-07T06:43:11.947Z,11.26
2022-11-07T06:45:39.195Z,11.28
2022-11-07T06:48:06.747Z,11.29
2022-11-07T06:50:34.309Z,11.28
2022-11-07T06:53:08.346Z,11.28
2022-11-07T06:55:35.375Z,11.24
2022-11-07T06:58:03.152Z,11.26
2022-11-07T07:00:32.692Z,11.26
2022-11-07T07:02:59.542Z,11.27
2022-11-07T07:05:26.612Z,11.26
2022-11-07T07:07:54.599Z,11.26
2022-11-07T07:10:21.523Z,11.27
2022-11-07T07:12:48.064Z,11.28
2022-11-07T07:15:14.619Z,11.30
2022-11-07T07:17:41.436Z,11.31
2022-11-07T07:20:08.591Z,11.30
2022-11-07T07:22:35.108Z,11.31
2022-11-07T07:25:01.614Z,11.32
2022-11-07T07:27:28.119Z,11.34
2022-11-07T07:29:54.809Z,11.32
2022-11-07T07:32:21.696Z,11.35
2022-11-07T07:34:48.210Z,11.37
2022-11-07T07:37:14.867Z,11.38
2022-11-07T07:39:41.760Z,11.38
2022-11-07T07:42:09.027Z,11.41
2022-11-07T07:44:36.197Z,11.40
2022-11-07T07:47:07.046Z,11.40
2022-11-07T07:49:36.653Z,11.41
2022-11-07T07:52:03.503Z,11.44
2022-11-07T07:54:30.035Z,11.44
2022-11-07T07:56:56.541Z,11.45
2022-11-07T07:59:23.041Z,11.47
2022-11-07T08:01:56.175Z,11.48
2022-11-07T08:04:23.856Z,11.48
2022-11-07T08:06:50.325Z,11.49
2022-11-07T08:09:16.895Z,11.50
2022-11-07T08:11:43.456Z,11.54
2022-11-07T08:14:11.533Z,11.56
2022-11-07T08:16:38.072Z,11.56
2022-11-07T08:19:05.026Z,11.58
2022-11-07T08:21:31.672Z,11.60
2022-11-07T08:23:58.291Z,11.61
2022-11-07T08:26:25.963Z,11.62
2022-11-07T08:28:54.143Z,11.64
2022-11-07T08:31:20.849Z,11.64
2022-11-07T08:33:47.495Z,11.64
2022-11-07T08:36:14.077Z,11.68
2022-11-07T08:38:40.573Z,11.68
2022-11-07T08:41:07.204Z,11.72
2022-11-07T08:43:33.718Z,11.74
2022-11-07T08:46:00.454Z,11.75
2022-11-07T08:48:27.226Z,11.75
2022-11-07T08:50:55.282Z,11.78
2022-11-07T08:53:23.148Z,11.80
2022-11-07T08:55:50.068Z,11.80
2022-11-07T08:58:16.715Z,11.82
2022-11-07T09:00:43.295Z,11.84
2022-11-07T09:05:58.586Z,11.86
2022-11-07T09:08:25.415Z,11.88
2022-11-07T09:10:56.576Z,11.91
2022-11-07T09:13:23.132Z,11.92
2022-11-07T09:15:51.848Z,11.94
2022-11-07T09:18:19.733Z,11.96
2022-11-07T09:20:46.400Z,11.99
2022-11-07T09:23:13.180Z,11.98
2022-11-07T09:25:39.944Z,12.01
2022-11-07T09:28:06.647Z,12.02
2022-11-07T09:30:33.151Z,12.07
2022-11-07T09:33:00.416Z,12.09
2022-11-07T09:35:27.548Z,12.11
2022-11-07T09:37:54.391Z,12.14
2022-11-07T09:40:23.590Z,12.16
2022-11-07T09:42:56.171Z,12.17
2022-11-07T09:45:22.768Z,12.20
2022-11-07T09:48:01.085Z,12.21
2022-11-07T09:50:33.999Z,12.25
2022-11-07T09:53:07.214Z,12.26
2022-11-07T09:55:37.804Z,12.28
2022-11-07T09:58:11.914Z,12.30
2022-11-07T10:00:38.445Z,12.27
2022-11-07T10:03:05.619Z,12.29
2022-11-07T10:06:05.318Z,12.32
2022-11-07T10:08:31.836Z,12.36
2022-11-07T10:11:02.309Z,12.38
2022-11-07T10:13:57.166Z,12.40
2022-11-07T10:16:26.571Z,12.36
2022-11-07T10:19:05.820Z,12.42
2022-11-07T10:22:08.708Z,12.43
2022-11-07T10:24:59.527Z,12.48
2022-11-07T10:27:26.846Z,12.50
2022-11-07T10:29:54.678Z,12.53
2022-11-07T10:32:37.920Z,12.57
2022-11-07T10:35:06.307Z,12.59
2022-11-07T10:37:32.785Z,12.62
2022-11-07T10:39:59.278Z,12.63
2022-11-07T10:42:30.758Z,12.70
2022-11-07T10:44:59.423Z,12.69
2022-11-07T10:47:27.952Z,12.76
2022-11-07T10:49:59.136Z,12.79
2022-11-07T10:52:27.722Z,12.81
2022-11-07T10:55:16.814Z,12.83
2022-11-07T10:57:46.374Z,12.86
2022-11-07T11:00:25.123Z,12.89
2022-11-07T11:02:53.122Z,12.92
2022-11-07T11:05:40.782Z,12.90
2022-11-07T11:08:16.358Z,12.94
2022-11-07T11:10:43.752Z,12.96
2022-11-07T11:13:28.118Z,12.97
2022-11-07T11:15:59.039Z,13.02
2022-11-07T11:18:29.324Z,13.02
2022-11-07T11:20:57.144Z,13.04
2022-11-07T11:23:27.045Z,13.04
2022-11-07T11:26:00.109Z,13.07
2022-11-07T11:28:32.016Z,13.08
2022-11-07T11:31:03.039Z,13.10
2022-11-07T11:33:40.616Z,13.10
2022-11-07T11:36:13.671Z,13.12
2022-11-07T11:38:40.652Z,13.13
2022-11-07T11:41:20.210Z,13.16
2022-11-07T11:43:52.828Z,13.16
2022-11-07T11:46:49.488Z,13.15
2022-11-07T11:49:28.379Z,13.18
2022-11-07T11:52:01.627Z,13.18
2022-11-07T11:54:28.248Z,13.21
2022-11-07T11:57:10.583Z,13.16
2022-11-07T12:00:09.441Z,13.21
2022-11-07T12:02:41.938Z,13.24
2022-11-07T12:05:14.587Z,13.24
2022-11-07T12:07:50.580Z,13.26
2022-11-07T12:10:42.656Z,13.25
2022-11-07T12:13:23.552Z,13.28
2022-11-07T12:16:28.388Z,13.26
2022-11-07T12:19:16.301Z,13.29
2022-11-07T12:21:53.006Z,13.28
2022-11-07T12:24:38.059Z,13.30
2022-11-07T12:27:24.068Z,13.31
2022-11-07T12:30:10.239Z,13.34
2022-11-07T12:32:45.626Z,13.36
2022-11-07T12:35:28.816Z,13.37
2022-11-07T12:38:30.753Z,13.37
2022-11-07T12:41:23.926Z,13.36
2022-11-07T12:44:11.761Z,13.40
2022-11-07T12:46:47.481Z,13.43
2022-11-07T12:49:19.767Z,13.45
2022-11-07T12:52:28.637Z,13.45
2022-11-07T12:55:01.991Z,13.44
2022-11-07T12:57:32.196Z,13.49
2022-11-07T13:00:27.588Z,13.49
2022-11-07T13:03:11.622Z,13.51
2022-11-07T13:05:52.572Z,13.52
2022-11-07T13:08:35.181Z,13.55
2022-11-07T13:11:22.716Z,13.54
2022-11-07T13:14:02.130Z,13.58
2022-11-07T13:16:31.370Z,13.60
2022-11-07T13:19:20.793Z,13.54
2022-11-07T13:22:02.452Z,13.57
2022-11-07T13:24:30.140Z,13.63
2022-11-07T13:26:57.792Z,13.62
2022-11-07T13:29:27.237Z,13.66
2022-11-07T13:32:11.557Z,13.64
2022-11-07T13:34:41.091Z,13.70
2022-11-07T13:37:16.601Z,13.69
2022-11-07T13:39:46.928Z,13.71
2022-11-07T13:42:19.174Z,13.71
2022-11-07T13:44:53.347Z,13.74
2022-11-07T13:47:22.730Z,13.69
2022-11-07T13:49:49.508Z,13.71
2022-11-07T13:52:39.203Z,13.71
2022-11-07T13:55:14.831Z,13.75
2022-11-07T13:57:46.157Z,13.76
2022-11-07T14:00:19.433Z,13.78
2022-11-07T14:02:57.962Z,13.75
2022-11-07T14:05:30.217Z,13.77
2022-11-07T14:08:02.455Z,13.78
2022-11-07T14:10:33.790Z,13.81
2022-11-07T14:13:10.821Z,13.79
2022-11-07T14:15:45.935Z,13.81
2022-11-07T14:18:16.132Z,13.80
2022-11-07T14:20:57.125Z,13.81
2022-11-07T14:23:26.602Z,13.84
2022-11-07T14:26:15.154Z,13.79
2022-11-07T14:28:41.659Z,13.83
2022-11-07T14:31:17.079Z,13.81
2022-11-07T14:33:56.675Z,13.83
2022-11-07T14:36:24.002Z,13.85
2022-11-07T14:38:53.605Z,13.83
2022-11-07T14:41:20.775Z,13.84
2022-11-07T14:43:48.724Z,13.86
2022-11-07T14:46:20.905Z,13.84
2022-11-07T14:48:49.576Z,13.85
2022-11-07T14:51:19.180Z,13.85
2022-11-07T14:53:51.534Z,13.86
2022-11-07T14:56:22.674Z,13.86
2022-11-07T14:58:49.372Z,13.86
2022-11-07T15:01:34.315Z,13.82
2022-11-07T15:04:15.005Z,13.88
2022-11-07T15:06:44.412Z,13.87
2022-11-07T15:09:12.051Z,13.87
2022-11-07T15:11:40.920Z,13.86
2022-11-07T15:14:23.547Z,13.85
2022-11-07T15:16:51.012Z,13.88
2022-11-07T15:19:23.108Z,13.87
2022-11-07T15:21:56.127Z,13.86
2022-11-07T15:24:32.820Z,13.88
2022-11-07T15:27:17.543Z,13.85
2022-11-07T15:29:53.984Z,13.87
2022-11-07T15:32:23.469Z,13.88
2022-11-07T15:35:08.031Z,13.86
2022-11-07T15:37:39.541Z,13.88
2022-11-07T15:40:16.977Z,13.88
2022-11-07T15:42:43.538Z,13.88
2022-11-07T15:45:11.069Z,13.82
2022-11-07T15:47:37.879Z,13.86
2022-11-07T15:50:14.218Z,13.87
2022-11-07T15:52:40.755Z,13.85
2022-11-07T15:55:12.667Z,13.84
2022-11-07T15:57:39.482Z,13.85
2022-11-07T16:00:06.759Z,13.82
2022-11-07T16:02:38.360Z,13.84
2022-11-07T16:05:05.461Z,13.84
2022-11-07T16:07:31.929Z,13.81
2022-11-07T16:09:58.517Z,13.82
2022-11-07T16:12:25.199Z,13.81
2022-11-07T16:14:55.529Z,13.79
2022-11-07T16:17:22.042Z,13.80
2022-11-07T16:19:48.573Z,13.77
2022-11-07T16:22:16.008Z,13.75
2022-11-07T16:24:44.941Z,13.78
2022-11-07T16:27:17.265Z,13.77
2022-11-07T16:29:44.291Z,13.75
2022-11-07T16:32:17.962Z,13.76
2022-11-07T16:34:45.202Z,13.71
2022-11-07T16:37:12.184Z,13.74
2022-11-07T16:39:38.805Z,13.69
2022-11-07T16:42:05.441Z,13.75
2022-11-07T16:44:31.999Z,13.74
2022-11-07T16:46:58.695Z,13.72
2022-11-07T16:49:32.485Z,13.73
2022-11-07T16:51:59.450Z,13.73
2022-11-07T16:54:26.137Z,13.76
2022-11-07T16:56:53.397Z,13.74
2022-11-07T16:59:23.296Z,13.75
2022-11-07T17:01:51.178Z,13.76
2022-11-07T17:04:18.301Z,13.77
2022-11-07T17:06:48.877Z,13.76
2022-11-07T17:09:17.016Z,13.76
2022-11-07T17:11:44.455Z,13.75
2022-11-07T17:14:11.135Z,13.75
2022-11-07T17:16:38.826Z,13.75
2022-11-07T17:19:06.218Z,13.72
2022-11-07T17:21:43.666Z,13.73
2022-11-07T17:24:10.609Z,13.72
2022-11-07T17:26:38.807Z,13.71
2022-11-07T17:29:07.315Z,13.72
2022-11-07T17:31:34.199Z,13.69
2022-11-07T17:34:01.012Z,13.70
2022-11-07T17:36:36.290Z,13.70
2022-11-07T17:39:11.010Z,13.69
2022-11-07T17:41:41.865Z,13.64
2022-11-07T17:44:09.437Z,13.68
2022-11-07T17:46:39.997Z,13.65
2022-11-07T17:49:07.904Z,13.65
2022-11-07T17:51:39.488Z,13.65
2022-11-07T17:54:06.265Z,13.64
2022-11-07T17:56:33.821Z,13.63
2022-11-07T17:59:04.025Z,13.63
2022-11-07T18:01:37.521Z,13.63
2022-11-07T18:04:06.063Z,13.62
2022-11-07T18:06:37.382Z,13.59
2022-11-07T18:09:06.191Z,13.61
2022-11-07T18:11:35.017Z,13.59
2022-11-07T18:14:02.368Z,13.61
2022-11-07T18:16:32.359Z,13.62
2022-11-07T18:19:01.005Z,13.61
2022-11-07T18:21:28.336Z,13.60
2022-11-07T18:23:55.565Z,13.60
2022-11-07T18:26:25.414Z,13.60
2022-11-07T18:28:53.647Z,13.59
2022-11-07T18:31:22.238Z,13.58
2022-11-07T18:33:52.581Z,13.58
2022-11-07T18:36:21.208Z,13.59
2022-11-07T18:38:48.492Z,13.58
2022-11-07T18:41:18.132Z,13.59
2022-11-07T18:43:44.714Z,13.57
2022-11-07T18:46:14.926Z,13.59
2022-11-07T18:48:42.751Z,13.59
2022-11-07T18:51:14.364Z,13.59
2022-11-07T18:53:42.793Z,13.56
2022-11-07T18:56:10.399Z,13.60
2022-11-07T18:58:37.364Z,13.58
2022-11-07T19:01:06.990Z,13.60
2022-11-07T19:03:34.786Z,13.61
2022-11-07T19:06:04.208Z,13.59
2022-11-07T19:08:35.261Z,13.60
2022-11-07T19:11:03.679Z,13.62
2022-11-07T19:13:30.381Z,13.58
2022-11-07T19:16:00.426Z,13.61
2022-11-07T19:18:27.055Z,13.60
2022-11-07T19:20:56.602Z,13.57
2022-11-07T19:23:23.181Z,13.60
2022-11-07T19:25:49.880Z,13.61
2022-11-07T19:28:16.688Z,13.61
2022-11-07T19:30:44.520Z,13.61
2022-11-07T19:33:11.841Z,13.62
2022-11-07T19:35:40.779Z,13.63
2022-11-07T19:38:09.553Z,13.63
2022-11-07T19:40:36.276Z,13.61
2022-11-07T19:43:04.279Z,13.61
2022-11-07T19:45:32.013Z,13.63
2022-11-07T19:47:58.914Z,13.61
2022-11-07T19:50:25.505Z,13.62
2022-11-07T19:52:52.315Z,13.61
2022-11-07T19:55:19.056Z,13.63
2022-11-07T19:57:45.609Z,13.62
2022-11-07T20:00:13.213Z,13.61
2022-11-07T20:02:44.391Z,13.62
2022-11-07T20:05:11.971Z,13.62
2022-11-07T20:07:39.093Z,13.63
2022-11-07T20:10:08.592Z,13.64
2022-11-07T20:12:35.133Z,13.63
2022-11-07T20:15:02.799Z,13.64
2022-11-07T20:17:29.368Z,13.62
2022-11-07T20:19:58.841Z,13.65
2022-11-07T20:22:27.762Z,13.63
2022-11-07T20:24:54.397Z,13.62
2022-11-07T20:27:20.911Z,13.63
2022-11-07T20:29:47.617Z,13.60
2022-11-07T20:32:14.148Z,13.62
2022-11-07T20:34:40.685Z,13.64
2022-11-07T20:37:07.154Z,13.65
2022-11-07T20:39:33.641Z,13.61
2022-11-07T20:42:00.153Z,13.62
2022-11-07T20:44:28.168Z,13.63
2022-11-07T20:46:56.533Z,13.61
2022-11-07T20:49:23.195Z,13.61
2022-11-07T20:51:51.976Z,13.63
2022-11-07T20:54:18.449Z,13.60
2022-11-07T20:56:45.127Z,13.62
2022-11-07T20:59:11.947Z,13.60
2022-11-07T21:01:38.834Z,13.62
2022-11-07T21:04:07.521Z,13.59
2022-11-07T21:06:35.325Z,13.60
2022-11-07T21:09:02.174Z,13.59
2022-11-07T21:11:30.630Z,13.59
2022-11-07T21:13:57.350Z,13.57
2022-11-07T21:16:25.644Z,13.59
2022-11-07T21:18:53.987Z,13.57
2022-11-07T21:21:23.402Z,13.57
2022-11-07T21:23:51.519Z,13.55
2022-11-07T21:26:19.599Z,13.57
2022-11-07T21:28:46.288Z,13.55
2022-11-07T21:31:16.095Z,13.55
2022-11-07T21:33:42.789Z,13.55
2022-11-07T21:36:15.285Z,13.54
2022-11-07T21:38:41.955Z,13.55
2022-11-07T21:41:09.780Z,13.55
2022-11-07T21:43:37.362Z,13.54
2022-11-07T21:46:18.583Z,13.53
2022-11-07T21:48:45.961Z,13.54
2022-11-07T21:51:15.052Z,13.53
2022-11-07T21:53:41.657Z,13.52
2022-11-07T21:56:12.624Z,13.54
2022-11-07T21:58:39.297Z,13.52
2022-11-07T22:01:06.001Z,13.53
2022-11-07T22:03:59.281Z,13.54
2022-11-07T22:06:20.544Z,13.51
2022-11-07T22:08:49.826Z,13.54
2022-11-07T22:11:16.758Z,13.54
2022-11-07T22:13:43.678Z,13.52
2022-11-07T22:16:19.395Z,13.54
2022-11-07T22:18:46.832Z,13.53
2022-11-07T22:21:16.573Z,13.54
2022-11-07T22:23:43.443Z,13.53
2022-11-07T22:26:12.929Z,13.55
2022-11-07T22:28:44.490Z,13.55
2022-11-07T22:31:15.029Z,13.56
2022-11-07T22:33:41.564Z,13.56
2022-11-07T22:36:09.970Z,13.57
2022-11-07T22:38:37.712Z,13.57
2022-11-07T22:41:23.826Z,13.55
2022-11-07T22:43:51.160Z,13.58
2022-11-07T22:46:21.956Z,13.58
2022-11-07T22:48:50.065Z,13.58
2022-11-07T22:51:19.987Z,13.59
2022-11-07T22:53:46.949Z,13.60
2022-11-07T22:56:18.773Z,13.59
2022-11-07T22:58:46.853Z,13.60
2022-11-07T23:01:25.658Z,13.60
2022-11-07T23:03:53.238Z,13.60
2022-11-07T23:06:20.375Z,13.59
2022-11-07T23:08:47.985Z,13.60
2022-11-07T23:14:08.722Z,13.60
2022-11-07T23:16:39.030Z,13.61
2022-11-07T23:19:08.472Z,13.62
2022-11-07T23:21:35.854Z,13.63
2022-11-07T23:24:03.032Z,13.62
2022-11-07T23:26:33.973Z,13.62
2022-11-07T23:29:23.130Z,13.62
2022-11-07T23:31:51.555Z,13.64
2022-11-07T23:34:20.216Z,13.63
2022-11-07T23:36:50.168Z,13.65
2022-11-07T23:39:19.694Z,13.64
2022-11-07T23:41:46.692Z,13.66
2022-11-07T23:44:14.247Z,13.65
2022-11-07T23:46:59.541Z,13.65
2022-11-07T23:50:04.244Z,13.64
2022-11-07T23:52:30.734Z,13.63
2022-11-07T23:55:15.664Z,13.63
2022-11-07T23:58:00.745Z,13.63
